Time;durP1;ratioP1;P1;durP2;ratioP2;P2;SDS_P1;SDS_P2;PMS_P1;PMS_P2;Temp;Humidity;BMP_temperature;BMP_pressure;BME280_temperature;BME280_humidity;BME280_pressure;Samples;Min_cycle;Max_cycle;Signal;HPM_P1;HPM_P2
2021/08/27 00:00:51;;;;;;;1.10;1.00;;;;;;;13.65;94.70;101104.25;4993310;28;20888;-65
2021/08/27 00:03:19;;;;;;;1.23;1.10;;;;;;;13.63;94.22;101106.22;4988080;28;20226;-65
2021/08/27 00:05:48;;;;;;;1.87;1.10;;;;;;;13.63;94.26;101108.91;4998044;28;20220;-66
2021/08/27 00:08:17;;;;;;;6.83;1.30;;;;;;;13.64;94.83;101106.09;4991997;28;20219;-66
2021/08/27 00:10:45;;;;;;;2.73;1.30;;;;;;;13.68;94.67;101101.34;4993190;28;20239;-66
2021/08/27 00:13:13;;;;;;;1.90;1.10;;;;;;;13.59;94.48;101110.13;4982248;28;20859;-65
2021/08/27 00:15:42;;;;;;;2.40;1.60;;;;;;;13.67;94.97;101105.00;4982660;28;20211;-66
2021/08/27 00:18:10;;;;;;;1.27;1.17;;;;;;;13.65;94.89;101105.13;4988490;28;20211;-66
2021/08/27 00:20:39;;;;;;;1.33;1.00;;;;;;;13.65;94.53;101109.66;4973480;28;20286;-66
2021/08/27 00:23:07;;;;;;;1.43;1.33;;;;;;;13.15;95.11;101022.50;4982525;28;21020;-66
2021/08/27 00:25:35;;;;;;;1.77;1.60;;;;;;;13.64;94.68;101107.94;4989976;28;20266;-66
2021/08/27 00:28:05;;;;;;;2.77;1.63;;;;;;;13.65;95.11;101109.66;5002698;28;20282;-66
2021/08/27 00:30:33;;;;;;;2.43;1.50;;;;;;;13.71;94.88;101117.28;4992439;28;20211;-66
2021/08/27 00:33:03;;;;;;;2.30;1.47;;;;;;;13.75;95.22;101116.09;5003298;28;20210;-66
2021/08/27 00:35:31;;;;;;;2.37;1.60;;;;;;;13.74;95.02;101114.34;4982081;28;20208;-66
2021/08/27 00:37:59;;;;;;;3.63;1.73;;;;;;;13.72;94.89;101127.13;4990767;28;20213;-66
2021/08/27 00:40:28;;;;;;;2.17;1.73;;;;;;;13.76;94.80;101120.50;4983279;28;20223;-66
2021/08/27 00:42:56;;;;;;;4.50;1.90;;;;;;;13.76;95.32;101128.59;4987167;28;20595;-66
2021/08/27 00:45:24;;;;;;;4.07;1.80;;;;;;;13.77;95.31;101121.38;4989598;28;20275;-66
2021/08/27 00:47:53;;;;;;;3.33;1.67;;;;;;;13.78;95.19;101134.78;4989357;28;20272;-66
2021/08/27 00:50:22;;;;;;;1.70;1.60;;;;;;;13.80;95.13;101140.06;4992212;28;20227;-66
2021/08/27 00:52:50;;;;;;;4.50;2.10;;;;;;;13.79;95.04;101147.28;4986629;28;20647;-66
2021/08/27 00:55:19;;;;;;;9.63;1.93;;;;;;;13.81;95.21;101125.59;4979255;28;20289;-66
2021/08/27 00:57:47;;;;;;;2.57;1.60;;;;;;;13.82;94.79;101138.09;4992048;28;20214;-65
2021/08/27 01:00:16;;;;;;;3.70;2.33;;;;;;;13.83;94.86;101135.28;4989722;28;20200;-65
2021/08/27 01:02:44;;;;;;;3.93;2.20;;;;;;;13.72;94.75;101119.00;4991477;28;20240;-66
2021/08/27 01:05:13;;;;;;;6.37;2.37;;;;;;;13.83;94.69;101150.63;5009171;28;20210;-65
2021/08/27 01:07:50;;;;;;;4.50;2.07;;;;;;;13.83;94.90;101139.81;4997553;28;20235;-65
2021/08/27 01:10:23;;;;;;;6.20;2.10;;;;;;;13.89;94.87;101144.75;4989228;28;20207;-66
2021/08/27 01:12:59;;;;;;;8.10;2.57;;;;;;;13.87;94.34;101150.28;5003337;28;20211;-66
2021/08/27 01:15:33;;;;;;;3.57;2.23;;;;;;;13.87;94.48;101161.06;4991335;28;20207;-67
2021/08/27 01:18:11;;;;;;;3.30;1.93;;;;;;;13.92;94.18;101161.59;4976146;28;20251;-66
2021/08/27 01:21:12;;;;;;;4.87;2.00;;;;;;;13.87;94.21;101166.47;4991506;28;20207;-66
2021/08/27 01:23:46;;;;;;;7.07;2.90;;;;;;;13.88;94.21;101160.09;4990571;28;20199;-66
2021/08/27 01:26:17;;;;;;;3.87;1.97;;;;;;;13.86;94.67;101156.66;4977962;28;20209;-66
2021/08/27 01:28:48;;;;;;;2.87;2.17;;;;;;;13.85;94.16;101146.81;4991015;28;20281;-65
2021/08/27 01:31:21;;;;;;;3.80;2.23;;;;;;;13.95;93.90;101161.34;4978596;28;20203;-66
2021/08/27 01:33:59;;;;;;;4.17;1.90;;;;;;;13.98;94.63;101162.97;4991102;28;20742;-66
2021/08/27 01:36:32;;;;;;;3.13;2.03;;;;;;;13.68;94.63;101131.03;4985173;28;20255;-66
2021/08/27 01:39:03;;;;;;;4.37;1.90;;;;;;;13.94;94.88;101181.22;4984440;28;20211;-66
2021/08/27 01:41:33;;;;;;;3.20;1.80;;;;;;;13.96;94.89;101176.56;4989079;28;20270;-66
2021/08/27 01:44:04;;;;;;;3.93;2.13;;;;;;;13.95;94.27;101182.09;4980163;28;20211;-66
2021/08/27 01:46:33;;;;;;;4.47;1.80;;;;;;;13.99;94.35;101181.75;4977882;28;20227;-66
2021/08/27 01:49:03;;;;;;;4.87;2.37;;;;;;;13.94;93.83;101170.44;4989865;28;20204;-66
2021/08/27 01:51:34;;;;;;;2.83;1.83;;;;;;;14.02;94.19;101187.88;4991955;28;20250;-66
2021/08/27 01:54:03;;;;;;;2.70;1.83;;;;;;;14.00;94.75;101179.91;4981949;28;20214;-66
2021/08/27 01:56:33;;;;;;;3.80;1.70;;;;;;;14.02;94.13;101177.09;4990732;28;20220;-67
2021/08/27 01:59:02;;;;;;;3.57;1.80;;;;;;;14.01;94.84;101186.16;4988468;28;20249;-66
2021/08/27 02:01:32;;;;;;;3.93;2.00;;;;;;;14.05;94.61;101183.13;4990830;28;20256;-66
2021/08/27 02:04:04;;;;;;;3.40;1.80;;;;;;;14.04;94.16;101188.63;4994302;28;20240;-66
2021/08/27 02:06:35;;;;;;;5.00;2.07;;;;;;;14.03;94.47;101195.88;4997998;28;20211;-66
2021/08/27 02:09:05;;;;;;;3.27;1.83;;;;;;;13.99;94.44;101194.38;4990032;28;20232;-66
2021/08/27 02:11:33;;;;;;;22.17;16.13;;;;;;;13.98;94.87;101193.53;4980774;28;20271;-66
2021/08/27 02:14:02;;;;;;;3.83;2.50;;;;;;;13.98;94.68;101214.28;4986662;28;20231;-66
2021/08/27 02:16:31;;;;;;;2.87;2.00;;;;;;;14.03;94.51;101211.22;4990109;28;20664;-66
2021/08/27 02:19:00;;;;;;;3.20;2.37;;;;;;;14.03;94.49;101209.38;4989321;28;20701;-66
2021/08/27 02:21:33;;;;;;;7.13;4.53;;;;;;;14.02;94.88;101196.84;4990770;28;20215;-66
2021/08/27 02:24:06;;;;;;;2.77;1.97;;;;;;;14.08;94.31;101206.34;4990238;28;20543;-67
2021/08/27 02:26:36;;;;;;;8.47;3.60;;;;;;;14.15;94.50;101215.72;4990329;28;20281;-66
2021/08/27 02:29:05;;;;;;;3.60;3.17;;;;;;;14.10;94.58;101223.31;4989523;28;20238;-66
2021/08/27 02:31:34;;;;;;;5.00;2.83;;;;;;;14.14;94.29;101222.97;4987365;28;20215;-66
2021/08/27 02:34:03;;;;;;;4.00;1.97;;;;;;;14.16;94.08;101225.56;4979294;28;20216;-66
2021/08/27 02:36:31;;;;;;;4.10;2.90;;;;;;;14.19;94.00;101223.47;4986068;28;20204;-67
2021/08/27 02:39:02;;;;;;;3.13;2.20;;;;;;;14.18;94.19;101224.44;4976906;28;20347;-66
2021/08/27 02:41:30;;;;;;;6.13;2.60;;;;;;;14.08;94.05;101201.81;4981782;28;20270;-66
2021/08/27 02:43:58;;;;;;;4.17;2.10;;;;;;;14.33;93.46;101229.66;4993236;28;20775;-67
2021/08/27 02:46:26;;;;;;;3.27;2.20;;;;;;;14.26;93.63;101235.53;4986102;28;20216;-67
2021/08/27 02:48:54;;;;;;;3.53;1.70;;;;;;;14.21;93.85;101231.47;4985016;28;20231;-67
2021/08/27 02:51:29;;;;;;;2.27;1.70;;;;;;;14.20;94.09;101240.53;4996751;28;20929;-67
2021/08/27 02:54:06;;;;;;;2.93;1.73;;;;;;;14.17;93.69;101243.47;4983736;28;20248;-67
2021/08/27 02:56:42;;;;;;;1.60;1.50;;;;;;;14.16;93.83;101242.63;4993740;28;20665;-67
2021/08/27 02:59:15;;;;;;;286.73;194.17;;;;;;;14.16;94.17;101249.84;5003959;28;20226;-66
2021/08/27 03:01:50;;;;;;;4.80;1.67;;;;;;;14.07;94.68;101255.91;4985019;28;20235;-66
2021/08/27 03:04:25;;;;;;;4.63;1.70;;;;;;;14.02;94.42;101275.16;4993468;28;20234;-66
2021/08/27 03:06:59;;;;;;;2.10;1.60;;;;;;;14.07;94.38;101269.44;4990581;28;20206;-67
2021/08/27 03:09:32;;;;;;;3.07;1.90;;;;;;;14.08;94.80;101265.75;4999512;28;20530;-67
2021/08/27 03:12:05;;;;;;;4.27;1.50;;;;;;;13.99;94.55;101254.66;4985154;28;20206;-66
2021/08/27 03:14:36;;;;;;;2.03;1.60;;;;;;;14.08;94.79;101265.75;4991020;28;20200;-67
2021/08/27 03:17:06;;;;;;;2.07;1.50;;;;;;;14.09;94.91;101267.50;4993002;28;20269;-67
2021/08/27 03:19:40;;;;;;;2.10;1.60;;;;;;;14.08;94.89;101273.84;4992796;28;20250;-67
2021/08/27 03:22:14;;;;;;;2.57;1.60;;;;;;;14.12;94.94;101269.97;4986803;28;20207;-67
2021/08/27 03:24:51;;;;;;;2.07;1.53;;;;;;;14.11;94.27;101287.16;4994684;28;20211;-73
2021/08/27 03:27:27;;;;;;;2.30;1.50;;;;;;;14.14;94.34;101290.50;5008178;28;20210;-68
2021/08/27 03:30:01;;;;;;;1.80;1.43;;;;;;;14.12;94.96;101291.59;4991926;28;20203;-67
2021/08/27 03:32:30;;;;;;;3.57;1.43;;;;;;;14.10;94.84;101277.34;4989752;28;20685;-67
2021/08/27 03:34:59;;;;;;;1.40;1.30;;;;;;;14.16;94.40;101290.38;4989743;28;20204;-68
2021/08/27 03:37:32;;;;;;;1.67;1.37;;;;;;;14.18;94.84;101294.69;4992151;28;20288;-67
2021/08/27 03:40:03;;;;;;;1.77;1.40;;;;;;;14.19;94.20;101299.13;4986965;28;20251;-68
2021/08/27 03:42:31;;;;;;;2.23;1.63;;;;;;;14.20;94.74;101290.03;5006495;28;20209;-68
2021/08/27 03:45:00;;;;;;;4.87;1.80;;;;;;;14.17;94.49;101300.22;5011506;28;20265;-68
2021/08/27 03:47:29;;;;;;;1.80;1.60;;;;;;;14.11;94.70;101296.13;4989151;28;20204;-68
2021/08/27 03:49:58;;;;;;;1.40;1.30;;;;;;;14.13;95.00;101302.28;4988731;28;20697;-67
2021/08/27 03:52:28;;;;;;;2.10;1.67;;;;;;;14.17;95.08;101305.59;4991084;28;20250;-67
2021/08/27 03:54:56;;;;;;;1.50;1.40;;;;;;;14.27;94.33;101310.22;4989985;28;20196;-67
2021/08/27 03:57:26;;;;;;;3.00;1.70;;;;;;;14.20;94.43;101316.19;4991449;28;20238;-68
2021/08/27 03:59:54;;;;;;;1.63;1.43;;;;;;;14.23;94.40;101315.97;4998295;28;20208;-68
2021/08/27 04:02:23;;;;;;;1.20;1.10;;;;;;;14.16;94.89;101328.19;4991142;28;20243;-67
2021/08/27 04:05:06;;;;;;;1.50;1.40;;;;;;;14.15;95.17;101323.78;4978975;28;20205;-67
2021/08/27 04:07:34;;;;;;;1.47;1.37;;;;;;;14.19;95.51;101326.13;4979047;28;20216;-68
2021/08/27 04:10:02;;;;;;;1.77;1.33;;;;;;;14.21;94.79;101317.91;4980138;28;20218;-67
2021/08/27 04:12:32;;;;;;;1.33;1.13;;;;;;;14.16;95.17;101320.09;4981784;28;20203;-67
2021/08/27 04:15:00;;;;;;;4.93;1.33;;;;;;;14.22;95.16;101323.19;4983544;28;20195;-68
2021/08/27 04:17:29;;;;;;;2.57;1.20;;;;;;;14.19;95.05;101328.84;4982578;28;20199;-67
2021/08/27 04:19:57;;;;;;;1.80;1.37;;;;;;;14.01;94.88;101303.16;4982117;28;20204;-68
2021/08/27 04:22:25;;;;;;;1.53;1.13;;;;;;;14.15;95.63;101361.59;4980215;28;20204;-67
2021/08/27 04:24:53;;;;;;;1.87;1.47;;;;;;;14.22;95.09;101341.25;4977970;28;20589;-68
2021/08/27 04:27:21;;;;;;;1.20;1.10;;;;;;;14.27;94.80;101339.06;4999578;28;20207;-68
2021/08/27 04:29:51;;;;;;;1.27;1.20;;;;;;;14.22;95.15;101342.13;4978941;28;20291;-69
2021/08/27 04:32:20;;;;;;;2.27;1.30;;;;;;;14.20;95.46;101344.06;4974945;28;20274;-69
2021/08/27 04:34:48;;;;;;;5.47;1.20;;;;;;;14.20;95.47;101345.91;4974412;28;20740;-68
2021/08/27 04:37:16;;;;;;;1.73;1.40;;;;;;;14.26;95.35;101348.16;4977789;28;20274;-68
2021/08/27 04:39:44;;;;;;;1.30;1.20;;;;;;;14.32;95.34;101350.41;4984075;28;20204;-68
2021/08/27 04:42:12;;;;;;;1.33;1.23;;;;;;;14.27;95.13;101355.28;4976843;28;20203;-67
2021/08/27 04:44:40;;;;;;;1.67;1.20;;;;;;;14.26;94.95;101367.06;4980385;28;20207;-72
2021/08/27 04:47:10;;;;;;;2.07;1.40;;;;;;;14.21;95.40;101361.13;4982615;28;20199;-68
2021/08/27 04:49:38;;;;;;;1.30;1.20;;;;;;;14.28;95.46;101373.22;4980152;28;20273;-68
2021/08/27 04:52:06;;;;;;;2.87;1.50;;;;;;;14.28;95.27;101362.41;4970084;28;20208;-68
2021/08/27 04:54:35;;;;;;;1.40;1.30;;;;;;;14.29;95.03;101369.53;4975765;28;20370;-68
2021/08/27 04:57:04;;;;;;;2.00;1.50;;;;;;;14.27;94.81;101377.75;4974632;28;20201;-68
2021/08/27 04:59:32;;;;;;;2.50;1.40;;;;;;;14.30;94.72;101376.66;4986643;28;20211;-69
2021/08/27 05:02:00;;;;;;;1.73;1.60;;;;;;;14.37;95.20;101386.03;4987498;28;20286;-68
2021/08/27 05:04:30;;;;;;;1.23;1.13;;;;;;;14.40;94.28;101382.28;4975669;28;20199;-69
2021/08/27 05:06:58;;;;;;;2.23;1.60;;;;;;;14.39;94.24;101380.53;4978768;28;20515;-68
2021/08/27 05:09:26;;;;;;;1.30;1.20;;;;;;;14.40;94.91;101377.75;4980650;28;20227;-68
2021/08/27 05:11:54;;;;;;;1.10;1.10;;;;;;;14.42;94.71;101378.47;4979973;28;20266;-68
2021/08/27 05:14:22;;;;;;;1.40;1.30;;;;;;;14.42;94.62;101377.63;4979384;28;20216;-68
2021/08/27 05:16:50;;;;;;;1.97;1.77;;;;;;;14.43;94.59;101382.09;5011833;28;20204;-69
2021/08/27 05:19:19;;;;;;;3.00;1.37;;;;;;;14.12;95.03;101327.56;4978045;28;20193;-68
2021/08/27 05:21:48;;;;;;;1.60;1.50;;;;;;;14.31;94.92;101370.28;4969889;28;20211;-68
2021/08/27 05:24:16;;;;;;;2.00;1.80;;;;;;;14.46;94.78;101401.63;4970602;28;20228;-68
2021/08/27 05:26:44;;;;;;;9.73;8.33;;;;;;;14.46;94.50;101388.13;4987869;28;20207;-68
2021/08/27 05:29:12;;;;;;;2.40;1.93;;;;;;;14.48;94.93;101399.69;4988471;28;20227;-68
2021/08/27 05:31:40;;;;;;;2.13;2.03;;;;;;;14.45;95.06;101405.31;4981827;28;20196;-69
2021/08/27 05:34:08;;;;;;;2.43;2.23;;;;;;;14.44;94.78;101405.44;4990202;28;20278;-69
2021/08/27 05:36:36;;;;;;;3.70;2.63;;;;;;;14.46;95.21;101398.94;4993757;28;20207;-68
2021/08/27 05:39:06;;;;;;;2.53;2.33;;;;;;;14.54;94.52;101401.94;4998831;28;20261;-69
2021/08/27 05:41:34;;;;;;;2.40;2.20;;;;;;;14.50;94.65;101405.84;4989987;28;20195;-68
2021/08/27 05:44:03;;;;;;;3.80;3.17;;;;;;;14.56;94.13;101415.31;4987874;28;20262;-69
2021/08/27 05:46:31;;;;;;;2.23;2.03;;;;;;;14.51;94.64;101404.84;4989504;28;20257;-69
2021/08/27 05:48:59;;;;;;;1.83;1.50;;;;;;;14.56;94.19;101421.59;4990221;28;20204;-68
2021/08/27 05:51:27;;;;;;;2.53;1.73;;;;;;;14.49;94.30;101420.31;4987648;28;20690;-69
2021/08/27 05:53:55;;;;;;;1.73;1.60;;;;;;;14.51;94.65;101422.91;4989668;28;20211;-69
2021/08/27 05:56:25;;;;;;;1.53;1.43;;;;;;;14.46;94.41;101428.66;4988750;28;20726;-69
2021/08/27 05:58:53;;;;;;;1.53;1.40;;;;;;;14.54;94.05;101426.25;4989672;28;20207;-68
2021/08/27 06:01:21;;;;;;;1.40;1.30;;;;;;;14.44;94.45;101400.88;4988215;28;20204;-69
2021/08/27 06:03:49;;;;;;;1.33;0.93;;;;;;;14.62;94.04;101435.63;4980307;28;20236;-69
2021/08/27 06:06:17;;;;;;;1.13;1.00;;;;;;;14.60;94.06;101422.22;4998871;28;20664;-69
2021/08/27 06:08:45;;;;;;;1.23;1.13;;;;;;;14.53;93.85;101418.25;4999758;28;20227;-69
2021/08/27 06:11:14;;;;;;;1.10;1.00;;;;;;;14.59;93.75;101429.47;4989175;28;20222;-68
2021/08/27 06:13:43;;;;;;;2.90;1.03;;;;;;;14.55;93.88;101443.34;4988935;28;20733;-69
2021/08/27 06:16:11;;;;;;;0.80;0.80;;;;;;;14.43;94.37;101431.59;4987458;28;20211;-68
2021/08/27 06:18:39;;;;;;;0.80;0.80;;;;;;;14.56;94.54;101437.81;4989655;28;20207;-68
2021/08/27 06:21:07;;;;;;;1.20;1.10;;;;;;;14.65;94.29;101441.69;4992442;28;20205;-69
2021/08/27 06:23:35;;;;;;;0.83;0.83;;;;;;;14.57;94.46;101436.84;4982180;28;20199;-68
2021/08/27 06:26:03;;;;;;;0.80;0.80;;;;;;;14.62;93.91;101436.50;4992077;28;20200;-68
2021/08/27 06:28:31;;;;;;;0.67;0.67;;;;;;;14.60;94.67;101463.66;4983193;28;20258;-68
2021/08/27 06:31:01;;;;;;;0.90;0.90;;;;;;;14.57;94.58;101441.38;4990116;28;20228;-68
2021/08/27 06:33:31;;;;;;;1.10;1.10;;;;;;;14.63;94.91;101456.28;4993341;28;20471;-68
2021/08/27 06:35:59;;;;;;;1.10;1.03;;;;;;;14.60;94.47;101462.78;4992313;28;20207;-68
2021/08/27 06:38:27;;;;;;;1.43;1.10;;;;;;;14.31;94.67;101408.13;4993587;28;20663;-68
2021/08/27 06:41:01;;;;;;;1.00;1.00;;;;;;;14.69;94.80;101456.69;4993507;28;20287;-68
2021/08/27 06:43:30;;;;;;;0.90;0.90;;;;;;;14.79;94.36;101459.59;4992756;28;20283;-69
2021/08/27 06:46:02;;;;;;;1.70;1.20;;;;;;;14.78;94.26;101457.88;4991537;28;20214;-69
2021/08/27 06:48:31;;;;;;;2.27;1.20;;;;;;;14.85;93.98;101469.97;4992357;28;20207;-69
2021/08/27 06:50:59;;;;;;;1.10;1.10;;;;;;;14.90;94.35;101473.19;4993210;28;20219;-69
2021/08/27 06:53:27;;;;;;;0.90;0.90;;;;;;;14.81;92.97;101472.03;4992393;28;20230;-69
2021/08/27 06:55:55;;;;;;;2.03;1.20;;;;;;;14.85;94.00;101476.22;4992395;28;20261;-68
2021/08/27 06:58:24;;;;;;;1.83;1.27;;;;;;;14.85;92.93;101467.25;4979243;28;20212;-68
2021/08/27 07:00:52;;;;;;;1.53;1.20;;;;;;;14.80;93.33;101478.41;4993266;28;20258;-68
2021/08/27 07:03:22;;;;;;;2.00;1.30;;;;;;;14.84;92.74;101469.09;4985097;28;20227;-68
2021/08/27 07:05:50;;;;;;;1.10;1.03;;;;;;;14.88;93.08;101485.97;4992758;28;20208;-70
2021/08/27 07:08:18;;;;;;;1.30;1.20;;;;;;;14.82;92.26;101478.31;4990293;28;20216;-69
2021/08/27 07:10:46;;;;;;;2.60;1.30;;;;;;;14.82;92.15;101481.00;4988638;28;20227;-68
2021/08/27 07:13:15;;;;;;;1.80;1.33;;;;;;;14.73;92.40;101476.28;4990498;28;20204;-68
2021/08/27 07:15:43;;;;;;;1.50;1.30;;;;;;;14.83;91.81;101483.59;4994621;28;20550;-68
2021/08/27 07:18:11;;;;;;;1.50;1.10;;;;;;;14.70;91.75;101466.56;4992543;28;20207;-68
2021/08/27 07:20:41;;;;;;;1.30;1.20;;;;;;;14.85;91.43;101486.19;4992184;28;20208;-68
2021/08/27 07:23:11;;;;;;;2.07;1.60;;;;;;;14.74;91.08;101491.53;4988886;28;20243;-68
2021/08/27 07:25:39;;;;;;;1.53;1.43;;;;;;;14.73;91.22;101501.47;4996154;28;20193;-68
2021/08/27 07:28:07;;;;;;;1.73;1.30;;;;;;;14.77;91.22;101489.47;4992283;28;20254;-68
2021/08/27 07:30:35;;;;;;;1.73;1.50;;;;;;;14.82;91.41;101486.41;4992920;28;20270;-68
2021/08/27 07:33:04;;;;;;;4.53;1.60;;;;;;;14.83;90.82;101489.00;4986724;28;20205;-68
2021/08/27 07:35:32;;;;;;;2.33;1.30;;;;;;;14.84;90.87;101498.84;4984714;28;20659;-68
2021/08/27 07:38:02;;;;;;;3.00;1.10;;;;;;;14.95;91.12;101500.75;4990387;28;20208;-68
2021/08/27 07:40:30;;;;;;;1.73;1.60;;;;;;;14.97;91.17;101509.59;4991996;28;20202;-68
2021/08/27 07:43:00;;;;;;;1.53;1.43;;;;;;;14.98;90.63;101495.09;4978439;28;20199;-68
2021/08/27 07:45:29;;;;;;;2.37;1.60;;;;;;;15.03;90.41;101506.47;4981314;28;20211;-68
2021/08/27 07:47:57;;;;;;;2.80;1.53;;;;;;;15.01;90.37;101507.56;4988050;28;20242;-68
2021/08/27 07:50:25;;;;;;;1.73;1.60;;;;;;;15.00;90.09;101517.53;4992051;28;20305;-68
2021/08/27 07:52:53;;;;;;;1.50;1.40;;;;;;;15.00;90.01;101513.94;4975956;28;20204;-67
2021/08/27 07:55:23;;;;;;;2.60;1.77;;;;;;;15.00;90.07;101506.72;4994994;28;20215;-68
2021/08/27 07:57:51;;;;;;;2.57;1.87;;;;;;;14.97;90.14;101522.28;4978106;28;20216;-68
2021/08/27 08:00:19;;;;;;;2.07;1.87;;;;;;;14.98;90.01;101513.19;4978689;28;20654;-68
2021/08/27 08:02:47;;;;;;;3.20;1.97;;;;;;;14.52;89.61;101441.72;4991927;28;20258;-68
2021/08/27 08:05:16;;;;;;;2.13;1.83;;;;;;;14.98;90.20;101524.00;4976819;28;20211;-68
2021/08/27 08:07:44;;;;;;;2.00;1.70;;;;;;;14.95;89.81;101535.91;4982332;28;20666;-68
2021/08/27 08:10:12;;;;;;;2.57;1.90;;;;;;;14.99;89.57;101521.19;4990678;28;20737;-68
2021/08/27 08:12:42;;;;;;;2.80;1.73;;;;;;;15.13;88.87;101515.63;4979581;28;20654;-68
2021/08/27 08:15:10;;;;;;;1.70;1.60;;;;;;;15.24;89.49;101512.09;4989690;28;20207;-68
2021/08/27 08:17:38;;;;;;;2.37;1.80;;;;;;;15.41;89.48;101527.09;4993826;28;20595;-68
2021/08/27 08:20:08;;;;;;;2.53;1.80;;;;;;;15.41;89.40;101527.09;4997944;28;20266;-68
2021/08/27 08:22:36;;;;;;;3.37;1.93;;;;;;;15.57;89.39;101534.91;4991202;28;20271;-68
2021/08/27 08:25:05;;;;;;;2.53;1.93;;;;;;;15.65;88.30;101527.13;4989962;28;20207;-68
2021/08/27 08:27:34;;;;;;;3.73;1.90;;;;;;;15.73;87.46;101520.13;5001552;28;20204;-68
2021/08/27 08:30:05;;;;;;;2.33;1.70;;;;;;;15.76;87.54;101519.88;4991502;28;20209;-68
2021/08/27 08:32:33;;;;;;;3.17;1.97;;;;;;;15.93;87.57;101524.00;4990784;28;20691;-69
2021/08/27 08:35:03;;;;;;;3.67;1.80;;;;;;;16.05;86.66;101516.75;4989764;28;20267;-68
2021/08/27 08:37:31;;;;;;;2.13;1.80;;;;;;;16.14;85.84;101522.31;4991209;28;20655;-68
2021/08/27 08:39:59;;;;;;;2.20;2.00;;;;;;;16.10;85.73;101525.38;4990523;28;20211;-68
2021/08/27 08:42:27;;;;;;;2.73;1.90;;;;;;;16.02;85.92;101541.38;4988892;28;20609;-68
2021/08/27 08:44:55;;;;;;;6.93;1.80;;;;;;;16.10;85.94;101547.94;4990457;28;20200;-68
2021/08/27 08:47:27;;;;;;;2.73;1.70;;;;;;;16.12;86.20;101532.41;4997037;28;20355;-68
2021/08/27 08:49:56;;;;;;;764.20;496.47;;;;;;;16.14;85.26;101535.84;4996714;28;20246;-68
2021/08/27 08:52:27;;;;;;;2.37;1.90;;;;;;;16.18;85.18;101535.63;4989968;28;20278;-68
2021/08/27 08:54:55;;;;;;;2.33;1.80;;;;;;;16.28;85.75;101533.94;4990065;28;20339;-67
2021/08/27 08:57:23;;;;;;;2.83;1.90;;;;;;;16.34;85.25;101541.56;4990054;28;20204;-68
2021/08/27 08:59:53;;;;;;;3.93;1.60;;;;;;;16.53;84.50;101540.94;4999912;28;20207;-68
2021/08/27 09:02:22;;;;;;;3.27;2.07;;;;;;;16.51;84.38;101532.06;4983437;28;20249;-68
2021/08/27 09:04:51;;;;;;;5.20;1.87;;;;;;;16.51;83.88;101545.63;4993218;28;20203;-67
2021/08/27 09:07:20;;;;;;;2.10;1.90;;;;;;;16.54;83.96;101556.25;4990185;28;20208;-68
2021/08/27 09:09:48;;;;;;;3.53;1.90;;;;;;;16.56;82.96;101548.88;4984784;28;20208;-69
2021/08/27 09:12:18;;;;;;;2.23;1.90;;;;;;;16.62;82.95;101553.78;4982117;28;20270;-69
2021/08/27 09:14:57;;;;;;;3.60;2.30;;;;;;;16.73;83.30;101567.38;4990232;28;20204;-69
2021/08/27 09:17:33;;;;;;;2.17;1.83;;;;;;;16.71;82.95;101558.50;4989905;28;20287;-68
2021/08/27 09:20:05;;;;;;;2.73;2.10;;;;;;;16.78;82.45;101565.16;4995706;28;20206;-68
2021/08/27 09:22:49;;;;;;;2.43;1.83;;;;;;;16.76;82.49;101565.28;4990942;28;20246;-68
2021/08/27 09:25:18;;;;;;;2.43;1.80;;;;;;;16.49;82.72;101555.75;4995711;28;20689;-68
2021/08/27 09:28:08;;;;;;;2.10;1.90;;;;;;;16.56;82.84;101573.28;4988520;28;20200;-69
2021/08/27 09:30:40;;;;;;;2.57;1.80;;;;;;;16.53;83.10;101570.78;4987473;28;20655;-68
2021/08/27 09:33:14;;;;;;;4.90;1.97;;;;;;;16.52;82.60;101579.91;4988882;28;20234;-68
2021/08/27 09:35:55;;;;;;;3.53;2.17;;;;;;;16.44;82.72;101583.22;4987305;28;20218;-68
2021/08/27 09:38:25;;;;;;;10.43;2.33;;;;;;;16.46;83.37;101582.13;4988605;28;20219;-69
2021/08/27 09:41:01;;;;;;;2.50;2.20;;;;;;;16.53;82.73;101592.47;4987634;28;20675;-69
2021/08/27 09:43:29;;;;;;;3.03;2.10;;;;;;;16.56;82.75;101593.13;4988978;28;20948;-69
2021/08/27 09:45:58;;;;;;;2.83;1.90;;;;;;;16.55;82.95;101593.25;4987726;28;20234;-69
2021/08/27 09:48:37;;;;;;;3.90;2.20;;;;;;;16.53;83.25;101589.75;4983129;28;20239;-69
2021/08/27 09:51:07;;;;;;;3.00;2.10;;;;;;;16.63;83.17;101602.50;4976865;28;20196;-70
2021/08/27 09:53:41;;;;;;;3.50;2.13;;;;;;;16.46;82.64;101579.41;4988474;28;20200;-69
2021/08/27 09:56:10;;;;;;;3.30;2.20;;;;;;;16.59;82.91;101581.16;4987754;28;21869;-69
2021/08/27 09:58:53;;;;;;;5.50;2.20;;;;;;;16.68;82.73;101600.31;4978832;28;20247;-69
2021/08/27 10:01:21;;;;;;;4.87;2.27;;;;;;;16.72;82.93;101593.63;4986598;28;20203;-69
2021/08/27 10:04:04;;;;;;;3.13;2.20;;;;;;;16.75;82.79;101592.53;4988288;28;20259;-68
2021/08/27 10:06:34;;;;;;;4.70;2.20;;;;;;;16.92;83.09;101593.91;4984449;28;20212;-69
2021/08/27 10:09:02;;;;;;;2.67;2.10;;;;;;;16.93;82.41;101601.91;4987792;28;20670;-69
2021/08/27 10:11:32;;;;;;;4.57;2.00;;;;;;;16.82;81.96;101590.19;4983558;28;20259;-69
2021/08/27 10:14:00;;;;;;;3.17;2.17;;;;;;;16.75;81.59;101593.38;4988490;28;20580;-69
2021/08/27 10:16:30;;;;;;;4.87;2.33;;;;;;;16.68;81.80;101592.16;4987975;28;20192;-69
2021/08/27 10:18:59;;;;;;;3.40;2.13;;;;;;;16.55;82.21;101601.38;4987378;28;20607;-69
2021/08/27 10:21:28;;;;;;;2.80;2.23;;;;;;;16.50;82.68;101606.28;4987266;28;20228;-69
2021/08/27 10:23:57;;;;;;;3.70;2.43;;;;;;;16.30;82.45;101559.06;4986929;28;20234;-69
2021/08/27 10:26:27;;;;;;;7.53;2.33;;;;;;;16.58;82.73;101617.41;4988433;28;20204;-69
2021/08/27 10:28:55;;;;;;;2.90;2.20;;;;;;;16.54;83.29;101611.38;4987008;28;20259;-69
2021/08/27 10:31:44;;;;;;;4.60;2.30;;;;;;;16.52;83.22;101607.88;4987157;28;20204;-69
2021/08/27 10:34:13;;;;;;;2.47;1.90;;;;;;;16.62;83.16;101597.19;4985024;28;20208;-69
2021/08/27 10:36:54;;;;;;;3.10;2.23;;;;;;;16.77;82.31;101610.41;4981770;28;20197;-70
2021/08/27 10:39:45;;;;;;;2.90;2.17;;;;;;;16.90;82.21;101613.03;4973547;28;20725;-69
2021/08/27 10:42:50;;;;;;;3.00;2.13;;;;;;;17.00;81.49;101608.56;4988204;28;20679;-69
2021/08/27 10:46:01;;;;;;;5.60;2.30;;;;;;;17.07;81.87;101600.78;4987775;28;20196;-69
2021/08/27 10:48:29;;;;;;;2.67;2.00;;;;;;;17.04;81.40;101595.59;4960112;28;20234;-69
2021/08/27 10:50:58;;;;;;;3.60;2.13;;;;;;;17.08;80.93;101587.09;4988003;28;20618;-69
2021/08/27 10:53:32;;;;;;;3.37;2.00;;;;;;;17.24;80.66;101603.00;4987302;28;20714;-70
2021/08/27 10:56:03;;;;;;;3.40;1.87;;;;;;;17.23;80.81;101604.00;4986389;28;20196;-69
2021/08/27 10:58:40;;;;;;;2.53;1.90;;;;;;;17.31;81.03;101597.91;4986234;28;20200;-69
2021/08/27 11:01:27;;;;;;;3.20;2.20;;;;;;;17.42;81.02;101597.88;4987172;28;20208;-69
2021/08/27 11:04:03;;;;;;;2.77;2.07;;;;;;;17.53;80.32;101597.88;4978678;28;20699;-69
2021/08/27 11:06:32;;;;;;;3.37;2.13;;;;;;;17.55;79.30;101593.19;4988005;28;20204;-69
2021/08/27 11:09:23;;;;;;;3.37;2.30;;;;;;;17.65;79.72;101590.53;4992159;28;20606;-69
2021/08/27 11:12:14;;;;;;;3.17;2.20;;;;;;;17.57;79.53;101552.31;4990173;28;20282;-69
2021/08/27 11:14:43;;;;;;;3.63;1.93;;;;;;;17.79;78.29;101605.72;4991445;28;20675;-70
2021/08/27 11:17:12;;;;;;;2.20;2.00;;;;;;;17.77;78.21;101602.28;4990581;28;20243;-69
2021/08/27 11:19:44;;;;;;;3.10;1.97;;;;;;;17.80;78.48;101602.03;4991399;28;20212;-68
2021/08/27 11:22:24;;;;;;;6.27;2.10;;;;;;;18.03;78.56;101614.50;4988991;28;20199;-69
2021/08/27 11:25:16;;;;;;;2.50;1.97;;;;;;;18.05;77.99;101622.53;4988196;28;20208;-69
2021/08/27 11:28:13;;;;;;;3.07;1.93;;;;;;;17.88;76.92;101616.69;4975357;28;20193;-69
2021/08/27 11:30:44;;;;;;;3.00;1.87;;;;;;;17.76;76.88;101606.84;4985619;28;20216;-69
2021/08/27 11:33:48;;;;;;;3.37;2.10;;;;;;;17.95;77.73;101634.19;4984660;28;20215;-69
2021/08/27 11:36:18;;;;;;;3.63;2.10;;;;;;;17.85;76.55;101610.66;4982106;28;20203;-69
2021/08/27 11:39:00;;;;;;;2.63;2.10;;;;;;;17.79;76.00;101622.91;4989939;28;20195;-69
2021/08/27 11:41:28;;;;;;;2.87;2.00;;;;;;;17.83;76.92;101628.94;4989594;28;20204;-69